createdAt,value
2017-11-10T00:02:06.426Z,101002
2017-11-10T00:12:10.533Z,100979
2017-11-10T00:22:13.763Z,100962
2017-11-10T00:32:16.961Z,100972
2017-11-10T00:42:20.155Z,100984
2017-11-10T00:52:23.387Z,100970
2017-11-10T01:02:26.617Z,100983
2017-11-10T01:12:29.826Z,100968
2017-11-10T01:22:33.762Z,100984
2017-11-10T01:32:36.959Z,100994
2017-11-10T01:42:40.349Z,100998
2017-11-10T01:52:43.564Z,100987
2017-11-10T02:02:46.757Z,100966
2017-11-10T02:12:50.046Z,100964
2017-11-10T02:22:53.218Z,100922
2017-11-10T02:32:56.403Z,100910
2017-11-10T02:42:59.631Z,100878
2017-11-10T02:53:02.827Z,100861
2017-11-10T03:03:06.806Z,100880
2017-11-10T03:13:09.998Z,100872
2017-11-10T03:23:13.240Z,100870
2017-11-10T03:33:16.416Z,100838
2017-11-10T03:43:19.604Z,100858
2017-11-10T03:53:22.764Z,100857
2017-11-10T04:03:26.728Z,100848
2017-11-10T04:13:29.928Z,100831
2017-11-10T04:23:33.124Z,100798
2017-11-10T04:33:36.325Z,100789
2017-11-10T04:43:39.539Z,100786
2017-11-10T04:53:42.731Z,100794
2017-11-10T05:03:45.923Z,100786
2017-11-10T05:13:49.200Z,100775
2017-11-10T05:23:52.504Z,100783
2017-11-10T05:33:55.699Z,100778
2017-11-10T05:43:58.927Z,100758
2017-11-10T05:54:02.117Z,100741
2017-11-10T06:04:05.308Z,100731
2017-11-10T06:14:08.480Z,100722
2017-11-10T06:24:11.640Z,100725
2017-11-10T06:34:15.661Z,100719
2017-11-10T06:44:18.899Z,100696
2017-11-10T06:54:22.091Z,100694
2017-11-10T07:04:26.071Z,100679
2017-11-10T07:14:29.265Z,100679
2017-11-10T07:24:32.505Z,100674
2017-11-10T07:34:36.554Z,100663
2017-11-10T07:44:39.858Z,100646
2017-11-10T07:54:43.068Z,100643
2017-11-10T08:04:46.310Z,100614
2017-11-10T08:14:49.552Z,100629
2017-11-10T08:24:52.803Z,100632
2017-11-10T08:34:56.041Z,100610
2017-11-10T08:44:59.354Z,100609
2017-11-10T08:55:02.603Z,100623
2017-11-10T09:05:05.812Z,100606
2017-11-10T09:15:09.040Z,100591
2017-11-10T09:25:12.227Z,100580
2017-11-10T09:35:34.219Z,100572
2017-11-10T09:45:42.768Z,100544
2017-11-10T09:55:48.810Z,100538
2017-11-10T10:27:01.334Z,100492
2017-11-10T10:37:05.271Z,100467
2017-11-10T10:47:08.486Z,100453
2017-11-10T10:57:11.681Z,100450
2017-11-10T11:07:14.849Z,100438
2017-11-10T11:17:18.048Z,100420
2017-11-10T11:27:21.273Z,100414
2017-11-10T11:37:25.252Z,100395
2017-11-10T11:47:28.582Z,100370
2017-11-10T11:57:32.514Z,100361
2017-11-10T12:07:36.489Z,100342
2017-11-10T12:17:40.459Z,100313
2017-11-10T12:27:43.676Z,100297
2017-11-10T12:37:47.655Z,100278
2017-11-10T12:47:50.849Z,100253
2017-11-10T12:57:54.148Z,100248
2017-11-10T13:07:57.389Z,100233
2017-11-10T13:18:00.632Z,100222
2017-11-10T13:28:04.150Z,100208
2017-11-10T13:38:07.362Z,100189
2017-11-10T13:48:10.615Z,100190
2017-11-10T13:58:13.811Z,100185
2017-11-10T14:08:17.183Z,100185
2017-11-10T14:18:21.205Z,100181
2017-11-10T14:28:24.390Z,100185
2017-11-10T14:38:27.612Z,100172
2017-11-10T14:48:30.798Z,100170
2017-11-10T14:58:33.984Z,100157
2017-11-10T15:08:37.968Z,100159
2017-11-10T15:18:41.162Z,100165
2017-11-10T15:28:44.382Z,100152
2017-11-10T15:38:47.570Z,100155
2017-11-10T15:48:51.540Z,100152
2017-11-10T15:58:54.777Z,100166
2017-11-10T16:08:57.967Z,100155
2017-11-10T16:19:01.376Z,100151
2017-11-10T16:29:04.595Z,100142
2017-11-10T16:39:07.800Z,100147
2017-11-10T16:49:11.759Z,100157
2017-11-10T16:59:15.756Z,100160
2017-11-10T17:09:19.031Z,100190
2017-11-10T17:19:22.224Z,100194
2017-11-10T17:29:25.442Z,100196
2017-11-10T17:39:29.400Z,100206
2017-11-10T17:49:32.587Z,100222
2017-11-10T17:59:35.783Z,100238
2017-11-10T18:09:38.966Z,100260
2017-11-10T18:19:42.156Z,100235
2017-11-10T18:29:45.376Z,100241
2017-11-10T18:39:49.587Z,100252
2017-11-10T18:49:52.774Z,100265
2017-11-10T18:59:56.775Z,100277
2017-11-10T19:09:59.991Z,100282
2017-11-10T19:20:03.179Z,100307
2017-11-10T19:30:06.376Z,100315
2017-11-10T19:40:09.626Z,100303
2017-11-10T19:50:12.979Z,100313
2017-11-10T20:00:16.178Z,100314
2017-11-10T20:10:20.145Z,100319
2017-11-10T20:20:23.369Z,100331
2017-11-10T20:30:27.511Z,100342
2017-11-10T20:40:30.846Z,100353
2017-11-10T20:50:34.106Z,100354
2017-11-10T21:00:38.090Z,100364
2017-11-10T21:10:41.312Z,100364
2017-11-10T21:20:44.635Z,100362
2017-11-10T21:30:49.732Z,100363
2017-11-10T21:40:52.921Z,100365
2017-11-10T21:50:56.132Z,100372
2017-11-10T22:00:59.631Z,100373
2017-11-10T22:11:02.828Z,100377
2017-11-10T22:21:06.070Z,100382
2017-11-10T22:31:09.258Z,100391
2017-11-10T22:41:12.492Z,100384
2017-11-10T22:51:16.536Z,100384
2017-11-10T23:01:20.147Z,100390
2017-11-10T23:11:23.441Z,100384
2017-11-10T23:21:26.639Z,100377
2017-11-10T23:31:30.196Z,100377
2017-11-10T23:41:33.350Z,100381
2017-11-10T23:51:36.542Z,100382
